Time;durP1;ratioP1;P1;durP2;ratioP2;P2;SDS_P1;SDS_P2;PMS_P1;PMS_P2;Temp;Humidity;BMP_temperature;BMP_pressure;BME280_temperature;BME280_humidity;BME280_pressure;Samples;Min_cycle;Max_cycle;Signal;HPM_P1;HPM_P2
2021/11/23 00:02:02;;;;;;;19.55;3.20;;;;;;;-145.71;100.00;60690.53;4786393;29;20443;-92
2021/11/23 00:05:26;;;;;;;15.50;3.45;;;;;;;-145.71;100.00;60690.53;4785018;30;20130;-92
2021/11/23 00:08:49;;;;;;;24.60;3.67;;;;;;;-145.71;100.00;60690.53;4800005;29;20493;-92
2021/11/23 00:12:15;;;;;;;28.13;3.75;;;;;;;-145.71;100.00;60690.53;4800031;29;20077;-93
2021/11/23 00:15:39;;;;;;;19.92;3.53;;;;;;;-145.71;100.00;60690.53;4786423;29;20038;-92
2021/11/23 00:19:04;;;;;;;22.55;4.57;;;;;;;-145.71;100.00;60690.53;4799896;29;20039;-93
2021/11/23 00:22:31;;;;;;;20.45;3.30;;;;;;;-145.71;100.00;60690.53;4787182;29;20035;-92
2021/11/23 00:25:55;;;;;;;19.15;3.00;;;;;;;-145.71;100.00;60690.53;4800125;29;20063;-93
2021/11/23 00:29:19;;;;;;;16.58;3.42;;;;;;;-145.71;100.00;60690.53;4786546;29;20027;-92
2021/11/23 00:32:43;;;;;;;22.58;4.13;;;;;;;-145.71;100.00;60690.53;4799565;29;20063;-92
2021/11/23 00:36:07;;;;;;;24.45;3.45;;;;;;;-145.71;100.00;60690.53;4786121;29;20686;-92
2021/11/23 00:39:31;;;;;;;25.15;3.63;;;;;;;-145.71;100.00;60690.53;4785992;29;20043;-92
2021/11/23 00:42:55;;;;;;;22.88;3.03;;;;;;;-145.71;100.00;60690.53;4800209;29;20186;-92
2021/11/23 00:46:19;;;;;;;13.77;2.92;;;;;;;-145.71;100.00;60690.53;4800031;29;20062;-92
2021/11/23 00:49:43;;;;;;;15.80;2.80;;;;;;;-145.71;100.00;60690.53;4785923;29;20043;-92
2021/11/23 00:53:07;;;;;;;27.65;4.68;;;;;;;-145.71;100.00;60690.53;4792722;29;20485;-92
2021/11/23 00:56:32;;;;;;;23.73;3.00;;;;;;;-145.71;100.00;60690.53;4799642;29;20563;-92
2021/11/23 00:59:57;;;;;;;31.30;4.15;;;;;;;-145.71;100.00;60690.53;4799538;29;20050;-92
2021/11/23 01:03:20;;;;;;;26.95;3.65;;;;;;;-145.71;100.00;60690.53;4799690;29;20039;-92
2021/11/23 01:06:46;;;;;;;21.10;3.60;;;;;;;-145.71;100.00;60690.53;4799215;29;20408;-92
2021/11/23 01:10:10;;;;;;;30.92;4.68;;;;;;;-145.71;100.00;60690.53;4799328;29;20039;-92
2021/11/23 01:13:35;;;;;;;29.33;4.32;;;;;;;-145.71;100.00;60690.53;4786865;29;20078;-92
2021/11/23 01:17:00;;;;;;;23.95;4.03;;;;;;;-145.71;100.00;60690.53;4800681;29;20412;-93
2021/11/23 01:20:25;;;;;;;28.70;3.97;;;;;;;-145.71;100.00;60690.53;4799557;29;20070;-93
2021/11/23 01:23:50;;;;;;;20.27;3.65;;;;;;;-145.71;100.00;60690.53;4785903;29;20034;-93
2021/11/23 01:27:14;;;;;;;23.00;4.22;;;;;;;-145.71;100.00;60690.53;4789290;29;20389;-93
2021/11/23 01:30:39;;;;;;;33.70;4.50;;;;;;;-145.71;100.00;60690.53;4802664;29;20035;-92
2021/11/23 01:34:04;;;;;;;21.83;3.83;;;;;;;-145.71;100.00;60690.53;4802594;29;20055;-92
2021/11/23 01:37:29;;;;;;;29.33;4.25;;;;;;;-145.71;100.00;60690.53;4802664;29;20067;-92
2021/11/23 01:40:53;;;;;;;30.55;4.30;;;;;;;-145.71;100.00;60690.53;4788722;29;20409;-92
2021/11/23 01:44:17;;;;;;;28.92;4.47;;;;;;;-145.71;100.00;60690.53;4790364;29;20110;-92
2021/11/23 01:47:41;;;;;;;26.80;4.53;;;;;;;-145.71;100.00;60690.53;4802580;29;20077;-92
2021/11/23 01:51:05;;;;;;;24.50;4.57;;;;;;;-145.71;100.00;60690.53;4803419;29;20411;-93
2021/11/23 01:54:29;;;;;;;24.20;3.78;;;;;;;-145.71;100.00;60690.53;4802484;29;20116;-92
2021/11/23 01:57:53;;;;;;;26.45;4.07;;;;;;;-145.71;100.00;60690.53;4802736;29;20104;-92
2021/11/23 02:01:17;;;;;;;29.58;4.45;;;;;;;-145.71;100.00;60690.53;4802674;29;20066;-92
2021/11/23 02:04:42;;;;;;;33.20;4.28;;;;;;;-145.71;100.00;60690.53;4802790;29;20035;-92
2021/11/23 02:08:07;;;;;;;29.33;3.83;;;;;;;-145.71;100.00;60690.53;4788688;29;20039;-92
2021/11/23 02:11:31;;;;;;;32.78;4.18;;;;;;;-145.71;100.00;60690.53;4802587;29;20138;-92
2021/11/23 02:14:56;;;;;;;38.88;4.10;;;;;;;-145.71;100.00;60690.53;4802526;29;20058;-92
2021/11/23 02:18:21;;;;;;;33.63;3.92;;;;;;;-145.71;100.00;60690.53;4788632;29;20068;-93
2021/11/23 02:21:46;;;;;;;28.58;3.92;;;;;;;-145.71;100.00;60690.53;4806039;29;20112;-93
2021/11/23 02:25:10;;;;;;;24.83;3.05;;;;;;;-145.71;100.00;60690.53;4801971;29;20464;-93
2021/11/23 02:28:34;;;;;;;22.40;3.80;;;;;;;-145.71;100.00;60690.53;4788276;29;20065;-92
2021/11/23 02:31:59;;;;;;;40.88;4.47;;;;;;;-145.71;100.00;60690.53;4803382;29;20072;-92
2021/11/23 02:35:23;;;;;;;19.40;2.78;;;;;;;-145.71;100.00;60690.53;4788080;29;20051;-92
2021/11/23 02:38:49;;;;;;;26.05;5.60;;;;;;;-145.71;100.00;60690.53;4801647;29;20035;-92
2021/11/23 02:42:14;;;;;;;29.20;3.78;;;;;;;-145.71;100.00;60690.53;4787982;29;20050;-92
2021/11/23 02:45:41;;;;;;;24.65;3.50;;;;;;;-145.71;100.00;60690.53;4804257;29;20043;-91
2021/11/23 02:49:07;;;;;;;24.65;3.85;;;;;;;-145.71;100.00;60690.53;4788486;29;20043;-94
2021/11/23 02:52:31;;;;;;;19.85;2.97;;;;;;;-145.71;100.00;60690.53;4789060;29;20065;-93
2021/11/23 02:55:56;;;;;;;22.13;3.08;;;;;;;-145.71;100.00;60690.53;4801751;29;20045;-93
2021/11/23 02:59:20;;;;;;;22.77;3.42;;;;;;;-145.71;100.00;60690.53;4801507;29;20050;-93
2021/11/23 03:02:44;;;;;;;20.10;3.20;;;;;;;-145.71;100.00;60690.53;4801591;29;20092;-93
2021/11/23 03:06:13;;;;;;;27.17;4.40;;;;;;;-145.71;100.00;60690.53;4801722;29;20131;-93
2021/11/23 03:09:37;;;;;;;18.10;4.32;;;;;;;-145.71;100.00;60690.53;4801908;29;20031;-93
2021/11/23 03:13:01;;;;;;;20.92;3.50;;;;;;;-145.71;100.00;60690.53;4803470;29;20046;-93
2021/11/23 03:16:26;;;;;;;18.05;3.88;;;;;;;-145.71;100.00;60690.53;4803188;29;20058;-92
2021/11/23 03:19:50;;;;;;;18.65;3.40;;;;;;;-145.71;100.00;60690.53;4787377;29;20046;-92
2021/11/23 03:23:14;;;;;;;25.38;4.40;;;;;;;-145.71;100.00;60690.53;4801120;29;20050;-93
2021/11/23 03:26:39;;;;;;;26.52;3.85;;;;;;;-145.71;100.00;60690.53;4787332;29;20042;-92
2021/11/23 03:30:04;;;;;;;22.00;2.80;;;;;;;-145.71;100.00;60690.53;4800762;29;20046;-93
2021/11/23 03:33:28;;;;;;;20.80;2.92;;;;;;;-145.71;100.00;60690.53;4787150;29;20063;-92
2021/11/23 03:36:53;;;;;;;23.73;2.97;;;;;;;-145.71;100.00;60690.53;4800956;29;20035;-92
2021/11/23 03:40:17;;;;;;;20.38;4.20;;;;;;;-145.71;100.00;60690.53;4800781;29;20035;-92
2021/11/23 03:43:41;;;;;;;23.67;3.05;;;;;;;-145.71;100.00;60690.53;4786797;29;20123;-92
2021/11/23 03:47:06;;;;;;;22.23;2.78;;;;;;;-145.71;100.00;60690.53;4803707;29;20035;-91
2021/11/23 03:50:31;;;;;;;24.27;4.13;;;;;;;-145.71;100.00;60690.53;4801139;29;20035;-92
2021/11/23 03:53:56;;;;;;;20.05;3.60;;;;;;;-145.71;100.00;60690.53;4803799;29;20122;-92
2021/11/23 03:57:20;;;;;;;23.33;3.35;;;;;;;-145.71;100.00;60690.53;4800509;29;20070;-92
2021/11/23 04:00:44;;;;;;;15.55;2.85;;;;;;;-145.71;100.00;60690.53;4786563;29;20503;-92
2021/11/23 04:04:08;;;;;;;18.50;2.67;;;;;;;-145.71;100.00;60690.53;4786456;29;20039;-92
2021/11/23 04:07:32;;;;;;;12.63;2.75;;;;;;;-145.71;100.00;60690.53;4800760;29;20031;-92
2021/11/23 04:10:56;;;;;;;20.42;4.45;;;;;;;-145.71;100.00;60690.53;4786429;29;20476;-93
2021/11/23 04:14:22;;;;;;;17.33;3.30;;;;;;;-145.71;100.00;60690.53;4799726;29;20055;-92
2021/11/23 04:17:45;;;;;;;17.55;3.97;;;;;;;-145.71;100.00;60690.53;4794898;29;20039;-93
2021/11/23 04:21:10;;;;;;;13.23;2.58;;;;;;;-145.71;100.00;60690.53;4800650;29;20031;-93
2021/11/23 04:24:35;;;;;;;10.68;2.00;;;;;;;-145.71;100.00;60690.53;4800772;29;20121;-93
2021/11/23 04:27:59;;;;;;;18.20;2.88;;;;;;;-145.71;100.00;60690.53;4786407;29;20118;-93
2021/11/23 04:31:23;;;;;;;17.00;2.28;;;;;;;-145.71;100.00;60690.53;4786575;29;20109;-92
2021/11/23 04:34:47;;;;;;;15.45;2.17;;;;;;;-145.71;100.00;60690.53;4785939;29;20744;-92
2021/11/23 04:38:12;;;;;;;12.32;2.20;;;;;;;-145.71;100.00;60690.53;4802464;29;20162;-92
2021/11/23 04:41:36;;;;;;;13.02;2.20;;;;;;;-145.71;100.00;60690.53;4799815;29;20035;-92
2021/11/23 04:45:01;;;;;;;15.57;2.47;;;;;;;-145.71;100.00;60690.53;4800001;29;20042;-93
2021/11/23 04:48:25;;;;;;;8.90;1.63;;;;;;;-145.71;100.00;60690.53;4799444;29;20108;-92
2021/11/23 04:51:50;;;;;;;15.70;2.70;;;;;;;-145.71;100.00;60690.53;4806208;29;20172;-92
2021/11/23 04:55:14;;;;;;;9.77;2.10;;;;;;;-145.71;100.00;60690.53;4799451;29;20046;-92
2021/11/23 04:58:38;;;;;;;14.45;2.38;;;;;;;-145.71;100.00;60690.53;4786258;29;20042;-92
2021/11/23 05:02:02;;;;;;;13.48;2.72;;;;;;;-145.71;100.00;60690.53;4799917;29;20493;-92
2021/11/23 05:05:27;;;;;;;19.70;2.67;;;;;;;-145.71;100.00;60690.53;4799571;29;20039;-92
2021/11/23 05:08:51;;;;;;;14.55;2.08;;;;;;;-145.71;100.00;60690.53;4800524;29;20039;-92
2021/11/23 05:12:15;;;;;;;14.50;2.25;;;;;;;-145.71;100.00;60690.53;4787172;29;20116;-92
2021/11/23 05:15:39;;;;;;;10.73;2.03;;;;;;;-145.71;100.00;60690.53;4799391;29;20051;-92
2021/11/23 05:19:03;;;;;;;19.88;3.25;;;;;;;-145.71;100.00;60690.53;4799370;29;20059;-92
2021/11/23 05:22:27;;;;;;;24.23;2.30;;;;;;;-145.71;100.00;60690.53;4806170;29;20035;-92
2021/11/23 05:25:51;;;;;;;15.70;2.80;;;;;;;-145.71;100.00;60690.53;4799264;29;20050;-92
2021/11/23 05:29:15;;;;;;;11.25;2.67;;;;;;;-145.71;100.00;60690.53;4799590;29;20073;-92
2021/11/23 05:32:41;;;;;;;13.65;2.30;;;;;;;-145.71;100.00;60690.53;4785766;29;20175;-92
2021/11/23 05:36:09;;;;;;;18.15;3.60;;;;;;;-145.71;100.00;60690.53;4789731;29;20109;-92
2021/11/23 05:39:33;;;;;;;25.10;3.22;;;;;;;-145.71;100.00;60690.53;4785562;29;20042;-92
2021/11/23 07:25:25;;;;;;;20.15;3.08;;;;;;;-145.71;100.00;60690.53;5850584;24;20010;-91
2021/11/23 10:30:57;;;;;;;8.32;2.05;;;;;;;-145.71;100.00;60690.53;5825523;24;20174;-91
2021/11/23 10:38:14;;;;;;;15.23;3.13;;;;;;;-145.71;100.00;60690.53;5823852;24;20030;-92
2021/11/23 10:45:13;;;;;;;15.65;2.20;;;;;;;-145.71;100.00;60690.53;5822828;24;20025;-92
2021/11/23 15:04:04;;;;;;;11.40;1.98;;;;;;;-145.71;100.00;60690.53;4547472;24;20144;31
2021/11/23 15:11:04;;;;;;;14.02;2.20;;;;;;;-145.71;100.00;60690.53;5708100;24;20049;-91
2021/11/23 16:18:28;;;;;;;15.65;2.80;;;;;;;-145.71;100.00;60690.53;5430748;24;20133;31
2021/11/23 16:22:12;;;;;;;21.13;2.65;;;;;;;-145.71;100.00;60690.53;4931794;24;20120;-91
2021/11/23 16:25:53;;;;;;;16.35;2.40;;;;;;;-145.71;100.00;60690.53;5373395;24;20338;-91
2021/11/23 19:07:47;;;;;;;11.60;3.17;;;;;;;-145.71;100.00;60690.53;5104719;24;20092;-86
2021/11/23 19:21:52;;;;;;;18.67;3.40;;;;;;;-145.71;100.00;60690.53;5798544;24;20018;-91
2021/11/23 19:25:17;;;;;;;13.80;2.78;;;;;;;-145.71;100.00;60690.53;4795908;30;20048;-90
2021/11/23 19:28:41;;;;;;;21.08;3.58;;;;;;;-145.71;100.00;60690.53;4791779;30;20490;-91
2021/11/23 19:32:05;;;;;;;28.20;4.07;;;;;;;-145.71;100.00;60690.53;4784029;30;20043;-91
2021/11/23 19:35:29;;;;;;;20.15;4.45;;;;;;;-145.71;100.00;60690.53;4782884;29;20188;-91
2021/11/23 19:38:53;;;;;;;20.45;3.33;;;;;;;-145.71;100.00;60690.53;4782991;30;20040;-91
2021/11/23 19:42:17;;;;;;;18.10;3.80;;;;;;;-145.71;100.00;60690.53;4782956;30;20036;-91
2021/11/23 19:45:41;;;;;;;19.73;3.95;;;;;;;-145.71;100.00;60690.53;4783089;29;20036;-91
2021/11/23 19:49:05;;;;;;;9.50;2.70;;;;;;;-145.71;100.00;60690.53;4767808;30;20614;-91
2021/11/23 19:52:31;;;;;;;14.35;3.38;;;;;;;-145.71;100.00;60690.53;4785331;30;20067;-91
2021/11/23 19:55:55;;;;;;;12.93;2.60;;;;;;;-145.71;100.00;60690.53;4782097;29;20042;-91
2021/11/23 19:59:19;;;;;;;16.65;2.97;;;;;;;-145.71;100.00;60690.53;4768945;30;20040;-91
2021/11/23 20:02:43;;;;;;;19.83;3.22;;;;;;;-145.71;100.00;60690.53;4772627;30;20028;-91
2021/11/23 20:06:07;;;;;;;18.60;3.45;;;;;;;-145.71;100.00;60690.53;4768870;30;20039;-91
2021/11/23 20:09:31;;;;;;;15.85;3.10;;;;;;;-145.71;100.00;60690.53;4782118;29;20059;-91
2021/11/23 20:12:55;;;;;;;15.05;2.88;;;;;;;-145.71;100.00;60690.53;4782785;30;20040;-92
2021/11/23 20:16:19;;;;;;;10.93;2.03;;;;;;;-145.71;100.00;60690.53;4768355;30;20045;-91
2021/11/23 20:19:43;;;;;;;11.75;2.85;;;;;;;-145.71;100.00;60690.53;4782138;29;20036;-92
2021/11/23 20:23:07;;;;;;;11.48;2.78;;;;;;;-145.71;100.00;60690.53;4768525;30;20530;-92
2021/11/23 20:26:31;;;;;;;13.65;2.70;;;;;;;-145.71;100.00;60690.53;4782040;30;20482;-91
2021/11/23 20:29:58;;;;;;;8.75;2.05;;;;;;;-145.71;100.00;60690.53;4781693;29;20055;-92
2021/11/23 20:33:23;;;;;;;13.55;2.40;;;;;;;-145.71;100.00;60690.53;4775324;30;20046;-91
2021/11/23 20:36:47;;;;;;;15.48;3.28;;;;;;;-145.71;100.00;60690.53;4781938;30;20036;-92
2021/11/23 20:40:12;;;;;;;14.55;2.70;;;;;;;-145.71;100.00;60690.53;4781684;29;20035;-91
2021/11/23 20:43:36;;;;;;;10.82;2.20;;;;;;;-145.71;100.00;60690.53;4787218;30;20020;-90
2021/11/23 20:47:01;;;;;;;15.50;3.47;;;;;;;-145.71;100.00;60690.53;4768096;30;20698;-91
2021/11/23 20:50:26;;;;;;;11.80;2.45;;;;;;;-145.71;100.00;60690.53;4782241;29;20510;-91
2021/11/23 20:53:53;;;;;;;8.43;2.47;;;;;;;-145.71;100.00;60690.53;4782021;30;20046;-92
2021/11/23 20:57:17;;;;;;;10.75;1.77;;;;;;;-145.71;100.00;60690.53;4781537;30;20043;-91
2021/11/23 21:00:42;;;;;;;13.65;2.17;;;;;;;-145.71;100.00;60690.53;4785115;30;20040;-91
2021/11/23 21:04:06;;;;;;;9.00;2.10;;;;;;;-145.71;100.00;60690.53;4768610;30;20115;-91
2021/11/23 21:07:31;;;;;;;8.85;1.98;;;;;;;-145.71;100.00;60690.53;4781579;30;20122;-91
2021/11/23 21:10:55;;;;;;;9.50;2.03;;;;;;;-145.71;100.00;60690.53;4768534;30;20039;-90
2021/11/23 21:14:19;;;;;;;10.35;2.03;;;;;;;-145.71;100.00;60690.53;4791763;29;20041;-92
2021/11/23 21:17:43;;;;;;;17.27;2.30;;;;;;;-145.71;100.00;60690.53;4781584;30;20043;-91
2021/11/23 21:21:08;;;;;;;16.65;2.58;;;;;;;-145.71;100.00;60690.53;4768183;30;20042;-92
2021/11/23 21:24:32;;;;;;;11.07;2.28;;;;;;;-145.71;100.00;60690.53;4781396;29;20079;-92
2021/11/23 21:27:56;;;;;;;13.30;3.65;;;;;;;-145.71;100.00;60690.53;4768382;30;20035;-92
2021/11/23 21:31:24;;;;;;;9.90;2.05;;;;;;;-145.71;100.00;60690.53;4788163;30;20047;-91
2021/11/23 21:34:48;;;;;;;13.63;2.97;;;;;;;-145.71;100.00;60690.53;4775740;30;20046;-92
2021/11/23 21:38:15;;;;;;;14.23;2.13;;;;;;;-145.71;100.00;60690.53;4781789;30;20493;-92
2021/11/23 21:41:40;;;;;;;13.75;2.83;;;;;;;-145.71;100.00;60690.53;4769271;30;20043;-91
2021/11/23 21:45:06;;;;;;;9.85;2.63;;;;;;;-145.71;100.00;60690.53;4771731;30;20044;-92
2021/11/23 21:48:30;;;;;;;10.98;2.20;;;;;;;-145.71;100.00;60690.53;4789960;30;20131;-91
2021/11/23 21:51:54;;;;;;;14.18;3.40;;;;;;;-145.71;100.00;60690.53;4785507;30;20043;-92
2021/11/23 21:55:19;;;;;;;12.10;2.60;;;;;;;-145.71;100.00;60690.53;4772160;30;20092;-91
2021/11/23 21:58:44;;;;;;;20.17;3.55;;;;;;;-145.71;100.00;60690.53;4771632;30;20485;-91
2021/11/23 22:02:08;;;;;;;15.45;2.78;;;;;;;-145.71;100.00;60690.53;4772024;30;20036;-90
2021/11/23 22:05:36;;;;;;;11.15;2.08;;;;;;;-145.71;100.00;60690.53;4771426;30;20119;-91
2021/11/23 22:09:01;;;;;;;11.25;3.28;;;;;;;-145.71;100.00;60690.53;4784937;30;20625;-91
2021/11/23 22:12:26;;;;;;;10.05;2.20;;;;;;;-145.71;100.00;60690.53;4785389;30;20097;-92
2021/11/23 22:15:52;;;;;;;14.88;2.50;;;;;;;-145.71;100.00;60690.53;4786453;29;20047;-91
2021/11/23 22:19:16;;;;;;;21.33;3.83;;;;;;;-145.71;100.00;60690.53;4785254;29;20553;-91
2021/11/23 22:22:40;;;;;;;18.35;2.72;;;;;;;-145.71;100.00;60690.53;4783948;30;20094;-91
2021/11/23 22:26:05;;;;;;;14.32;2.63;;;;;;;-145.71;100.00;60690.53;4784435;29;20048;-92
2021/11/23 22:29:29;;;;;;;18.67;3.40;;;;;;;-145.71;100.00;60690.53;4793532;29;20128;-91
2021/11/23 22:32:54;;;;;;;16.13;2.55;;;;;;;-145.71;100.00;60690.53;4770459;30;20032;-92
2021/11/23 22:36:19;;;;;;;14.27;3.38;;;;;;;-145.71;100.00;60690.53;4770223;30;20063;-91
2021/11/23 22:39:43;;;;;;;16.67;3.40;;;;;;;-145.71;100.00;60690.53;4770448;30;20044;-92
2021/11/23 22:43:07;;;;;;;15.65;3.40;;;;;;;-145.71;100.00;60690.53;4784054;30;20040;-92
2021/11/23 22:46:31;;;;;;;19.17;3.10;;;;;;;-145.71;100.00;60690.53;4783639;30;20039;-91
2021/11/23 22:49:55;;;;;;;14.70;3.00;;;;;;;-145.71;100.00;60690.53;4770206;30;20063;-91
2021/11/23 22:53:19;;;;;;;16.85;3.25;;;;;;;-145.71;100.00;60690.53;4782670;29;20058;-90
2021/11/23 22:56:43;;;;;;;20.10;3.92;;;;;;;-145.71;100.00;60690.53;4773168;30;20047;-91
2021/11/23 23:00:08;;;;;;;17.42;3.15;;;;;;;-145.71;100.00;60690.53;4783496;29;20165;-91
2021/11/23 23:03:32;;;;;;;7.57;2.55;;;;;;;-145.71;100.00;60690.53;4769876;30;20040;-91
2021/11/23 23:06:56;;;;;;;12.70;3.10;;;;;;;-145.71;100.00;60690.53;4770011;30;20036;-91
2021/11/23 23:10:21;;;;;;;13.32;2.55;;;;;;;-145.71;100.00;60690.53;4783280;29;20152;-91
2021/11/23 23:13:45;;;;;;;11.23;2.42;;;;;;;-145.71;100.00;60690.53;4783095;30;20044;-91
2021/11/23 23:17:11;;;;;;;14.10;2.63;;;;;;;-145.71;100.00;60690.53;4783523;30;20039;-91
2021/11/23 23:20:36;;;;;;;11.00;3.50;;;;;;;-145.71;100.00;60690.53;4771939;30;20096;-91
2021/11/23 23:24:00;;;;;;;8.50;2.60;;;;;;;-145.71;100.00;60690.53;4769392;30;20054;-91
2021/11/23 23:27:25;;;;;;;9.77;2.28;;;;;;;-145.71;100.00;60690.53;4783424;30;20512;-91
2021/11/23 23:30:51;;;;;;;16.02;2.33;;;;;;;-145.71;100.00;60690.53;4769514;30;20378;-91
2021/11/23 23:34:17;;;;;;;11.88;2.63;;;;;;;-145.71;100.00;60690.53;4768227;30;20109;-91
2021/11/23 23:37:40;;;;;;;12.15;2.45;;;;;;;-145.71;100.00;60690.53;4782702;30;20386;-91
2021/11/23 23:41:05;;;;;;;11.55;2.10;;;;;;;-145.71;100.00;60690.53;4782745;29;20039;-91
2021/11/23 23:44:29;;;;;;;22.55;2.42;;;;;;;-145.71;100.00;60690.53;4782576;29;20448;-91
2021/11/23 23:47:53;;;;;;;12.70;1.80;;;;;;;-145.71;100.00;60690.53;4783810;30;20127;-91
2021/11/23 23:51:17;;;;;;;11.48;1.90;;;;;;;-145.71;100.00;60690.53;4782493;30;20074;-91
2021/11/23 23:54:41;;;;;;;4.97;1.63;;;;;;;-145.71;100.00;60690.53;4782579;29;20482;-91
2021/11/23 23:58:05;;;;;;;11.13;1.90;;;;;;;-145.71;100.00;60690.53;4769439;30;20035;-91
